Time;durP1;ratioP1;P1;durP2;ratioP2;P2;SDS_P1;SDS_P2;PMS_P1;PMS_P2;Temp;Humidity;BMP_temperature;BMP_pressure;BME280_temperature;BME280_humidity;BME280_pressure;Samples;Min_cycle;Max_cycle;Signal;HPM_P1;HPM_P2
2021/09/27 00:01:20;;;;;;;14.27;12.87;;;17.50;99.90;;;;;;5085513;28;20423;-45
2021/09/27 00:03:46;;;;;;;13.70;12.20;;;17.40;99.90;;;;;;5086327;28;20461;-42
2021/09/27 00:06:13;;;;;;;12.50;11.20;;;17.40;99.90;;;;;;5086899;28;20411;-41
2021/09/27 00:08:40;;;;;;;12.93;11.83;;;17.50;99.90;;;;;;5077122;28;20458;-42
2021/09/27 00:11:20;;;;;;;12.63;11.50;;;17.50;99.90;;;;;;5086443;28;20415;-38
2021/09/27 00:13:56;;;;;;;12.33;11.10;;;17.50;99.90;;;;;;5086449;28;20430;-42
2021/09/27 00:16:23;;;;;;;13.40;12.00;;;17.50;99.90;;;;;;5086892;28;20779;-41
2021/09/27 00:18:48;;;;;;;12.87;11.57;;;17.40;99.90;;;;;;5087068;28;20512;-46
2021/09/27 00:21:22;;;;;;;12.70;11.40;;;17.40;99.90;;;;;;5086278;28;20845;-42
2021/09/27 00:23:48;;;;;;;14.20;12.80;;;17.40;99.90;;;;;;5072371;28;20263;-39
2021/09/27 00:26:15;;;;;;;15.53;11.47;;;17.30;99.90;;;;;;5084707;28;20829;-41
2021/09/27 00:28:40;;;;;;;13.23;11.93;;;17.40;99.90;;;;;;5085434;28;20578;-40
2021/09/27 00:31:07;;;;;;;13.03;11.73;;;17.30;99.90;;;;;;5086487;28;20422;-42
2021/09/27 00:33:32;;;;;;;12.37;11.20;;;17.30;99.90;;;;;;5084479;28;20640;-44
2021/09/27 00:35:59;;;;;;;12.57;11.33;;;17.30;99.90;;;;;;5086128;28;20509;-44
2021/09/27 00:38:26;;;;;;;13.57;12.17;;;17.30;99.90;;;;;;5074247;28;20438;-39
2021/09/27 00:41:03;;;;;;;12.00;10.73;;;17.30;99.90;;;;;;5084457;28;20543;-39
2021/09/27 00:43:31;;;;;;;12.47;11.17;;;17.30;99.90;;;;;;5085430;28;20406;-38
2021/09/27 00:46:00;;;;;;;11.43;10.13;;;17.20;99.90;;;;;;5086188;28;20967;-38
2021/09/27 00:48:27;;;;;;;12.90;11.60;;;17.20;99.90;;;;;;5084861;28;20421;-42
2021/09/27 00:50:56;;;;;;;13.30;11.93;;;17.20;99.90;;;;;;5086016;28;20513;-44
2021/09/27 00:53:26;;;;;;;11.47;10.47;;;17.10;99.90;;;;;;5076153;28;20427;-43
2021/09/27 00:55:55;;;;;;;14.50;11.57;;;17.10;99.90;;;;;;5084703;28;20415;-41
2021/09/27 00:58:22;;;;;;;12.70;11.50;;;17.00;99.90;;;;;;5084556;28;20426;-41
2021/09/27 01:00:49;;;;;;;11.13;10.03;;;17.00;99.90;;;;;;5085792;28;20576;-41
2021/09/27 01:03:15;;;;;;;10.60;9.60;;;16.90;99.90;;;;;;5072256;28;20443;-42
2021/09/27 01:05:49;;;;;;;11.57;10.37;;;17.00;99.90;;;;;;5085829;28;20422;-40
2021/09/27 01:08:33;;;;;;;12.90;10.40;;;16.90;99.90;;;;;;5076373;28;20868;-39
2021/09/27 01:11:04;;;;;;;14.40;9.93;;;17.00;99.90;;;;;;5080333;28;20399;-40
2021/09/27 01:13:51;;;;;;;11.30;10.30;;;17.00;99.90;;;;;;5083699;28;20856;-42
2021/09/27 01:16:25;;;;;;;11.43;10.33;;;16.90;99.90;;;;;;5086069;28;20504;-44
2021/09/27 01:19:19;;;;;;;11.40;10.27;;;16.90;99.90;;;;;;5085827;28;20545;-38
2021/09/27 01:22:04;;;;;;;11.00;9.90;;;16.80;99.90;;;;;;5085727;28;20495;-39
2021/09/27 01:25:10;;;;;;;10.73;9.73;;;16.80;99.90;;;;;;5078445;28;21199;-40
2021/09/27 01:28:00;;;;;;;11.10;10.00;;;16.80;99.90;;;;;;5085982;28;20927;-41
2021/09/27 01:30:52;;;;;;;11.43;10.40;;;16.80;99.90;;;;;;5075031;28;20422;-42
2021/09/27 01:33:42;;;;;;;12.03;10.43;;;16.80;99.90;;;;;;5085367;28;20844;-39
2021/09/27 01:36:26;;;;;;;12.07;10.57;;;16.80;99.90;;;;;;5085689;28;20737;-43
2021/09/27 01:39:26;;;;;;;10.30;9.20;;;16.80;99.90;;;;;;5072970;28;20520;-38
2021/09/27 01:42:33;;;;;;;10.40;9.30;;;16.80;99.90;;;;;;5083892;28;20395;-44
2021/09/27 01:45:12;;;;;;;10.87;9.43;;;16.80;99.90;;;;;;5070560;28;20425;-38
2021/09/27 01:47:47;;;;;;;11.10;9.97;;;16.80;99.90;;;;;;5084888;28;20430;-41
2021/09/27 01:50:22;;;;;;;10.90;9.90;;;16.80;99.90;;;;;;5085533;28;20799;-41
2021/09/27 01:52:57;;;;;;;10.70;9.60;;;16.80;99.90;;;;;;5081546;28;21111;-41
2021/09/27 01:55:50;;;;;;;11.23;9.90;;;16.70;99.90;;;;;;5085044;28;20465;-44
2021/09/27 01:58:44;;;;;;;11.10;9.97;;;16.60;99.90;;;;;;5083849;28;20429;-41
2021/09/27 02:01:32;;;;;;;10.27;9.23;;;16.60;99.90;;;;;;5077511;28;20421;-43
2021/09/27 02:04:37;;;;;;;10.20;9.10;;;16.60;99.90;;;;;;5088454;28;20402;-39
2021/09/27 02:07:04;;;;;;;10.00;9.10;;;16.60;99.90;;;;;;5081992;28;20611;-38
2021/09/27 02:09:40;;;;;;;10.50;9.50;;;16.60;99.90;;;;;;5076890;28;20570;-43
2021/09/27 02:12:27;;;;;;;11.87;9.33;;;16.60;99.90;;;;;;5086520;28;20425;-39
2021/09/27 02:15:07;;;;;;;11.33;9.60;;;16.60;99.90;;;;;;5088903;28;20426;-42
2021/09/27 02:17:49;;;;;;;11.30;10.20;;;16.60;99.90;;;;;;5088930;28;20474;-44
2021/09/27 02:20:24;;;;;;;10.67;9.60;;;16.70;99.90;;;;;;5088751;28;20489;-39
2021/09/27 02:23:26;;;;;;;10.40;9.40;;;16.70;99.90;;;;;;5087232;28;20496;-40
2021/09/27 02:25:52;;;;;;;10.67;9.67;;;16.60;99.90;;;;;;5080784;28;20410;-39
2021/09/27 02:28:21;;;;;;;14.27;10.83;;;16.60;99.90;;;;;;5088977;28;20410;-38
2021/09/27 02:30:51;;;;;;;11.53;10.27;;;16.60;99.90;;;;;;5088717;28;20484;-41
2021/09/27 02:33:49;;;;;;;9.90;9.00;;;16.50;99.90;;;;;;5088267;28;20517;-42
2021/09/27 02:36:42;;;;;;;11.63;10.53;;;16.50;99.90;;;;;;5087349;28;20426;-39
2021/09/27 02:39:27;;;;;;;10.77;9.77;;;16.50;99.90;;;;;;5081259;28;20461;-41
2021/09/27 02:42:06;;;;;;;11.30;10.20;;;16.50;99.90;;;;;;5084836;28;20790;-44
2021/09/27 02:44:32;;;;;;;10.27;9.27;;;16.50;99.90;;;;;;5086555;28;20418;-39
2021/09/27 02:46:57;;;;;;;11.70;10.53;;;16.50;99.90;;;;;;5088145;28;20422;-45
2021/09/27 02:49:28;;;;;;;12.83;10.17;;;16.40;99.90;;;;;;5088791;28;20429;-41
2021/09/27 02:51:58;;;;;;;11.07;9.03;;;16.30;99.90;;;;;;5088158;28;20203;-41
2021/09/27 02:54:33;;;;;;;11.40;10.23;;;16.30;99.90;;;;;;5078201;28;20439;-40
2021/09/27 02:57:25;;;;;;;10.43;9.43;;;16.30;99.90;;;;;;5088123;28;20426;-39
2021/09/27 02:59:57;;;;;;;11.27;10.17;;;16.30;99.90;;;;;;5088207;28;20477;-40
2021/09/27 03:02:33;;;;;;;11.00;10.00;;;16.40;99.90;;;;;;5080527;28;20407;-44
2021/09/27 03:04:58;;;;;;;10.70;8.80;;;16.30;99.90;;;;;;5081149;28;20410;-40
2021/09/27 03:07:51;;;;;;;10.97;9.87;;;16.40;99.90;;;;;;5087975;28;20418;-42
2021/09/27 03:10:42;;;;;;;10.77;9.80;;;16.40;99.90;;;;;;5078330;28;20243;-39
2021/09/27 03:13:19;;;;;;;13.33;11.47;;;16.50;99.90;;;;;;5081974;28;20442;-41
2021/09/27 03:16:01;;;;;;;11.23;10.10;;;16.50;99.90;;;;;;5088005;28;20411;-43
2021/09/27 03:18:37;;;;;;;11.90;9.80;;;16.50;99.90;;;;;;5087829;28;20525;-40
2021/09/27 03:21:24;;;;;;;11.23;10.13;;;16.60;99.90;;;;;;5087552;28;20941;-40
2021/09/27 03:24:09;;;;;;;10.90;9.90;;;16.50;99.90;;;;;;5078831;28;20426;-42
2021/09/27 03:26:49;;;;;;;12.50;11.20;;;16.60;99.90;;;;;;5085972;28;20411;-42
2021/09/27 03:29:56;;;;;;;13.60;11.57;;;16.60;99.90;;;;;;5087209;28;20505;-41
2021/09/27 03:32:34;;;;;;;12.37;11.07;;;16.70;99.90;;;;;;5087951;28;20418;-40
2021/09/27 03:35:02;;;;;;;12.70;10.67;;;16.80;99.90;;;;;;5073072;28;20758;-41
2021/09/27 03:38:05;;;;;;;12.43;10.50;;;16.80;99.90;;;;;;5087233;28;20442;-45
2021/09/27 03:40:38;;;;;;;11.63;10.40;;;16.80;99.90;;;;;;5080163;28;20461;-39
2021/09/27 03:43:06;;;;;;;10.90;9.80;;;16.80;99.90;;;;;;5081130;28;20444;-42
2021/09/27 03:45:47;;;;;;;14.53;10.60;;;16.80;99.90;;;;;;5087053;28;20497;-39
2021/09/27 03:48:26;;;;;;;12.10;10.80;;;16.90;99.90;;;;;;5087250;28;20417;-41
2021/09/27 03:51:00;;;;;;;12.20;10.97;;;16.90;99.90;;;;;;5086957;28;20418;-42
2021/09/27 03:53:48;;;;;;;11.43;10.30;;;16.80;99.90;;;;;;5083722;28;20430;-41
2021/09/27 03:56:37;;;;;;;12.17;10.13;;;16.90;99.90;;;;;;5079555;28;20418;-41
2021/09/27 03:59:15;;;;;;;11.07;9.93;;;16.90;99.90;;;;;;5085397;28;20607;-41
2021/09/27 04:02:14;;;;;;;10.60;9.60;;;17.00;99.90;;;;;;5087159;28;20470;-39
2021/09/27 04:04:58;;;;;;;12.13;10.80;;;16.90;99.90;;;;;;5077543;28;20410;-41
2021/09/27 04:07:41;;;;;;;12.27;11.00;;;17.00;99.90;;;;;;5086848;28;20770;-39
2021/09/27 04:10:32;;;;;;;12.30;10.67;;;16.90;99.90;;;;;;5078352;28;20804;-41
2021/09/27 04:13:06;;;;;;;11.77;10.57;;;16.90;99.90;;;;;;5083288;28;20482;-41
2021/09/27 04:16:09;;;;;;;14.70;11.43;;;16.90;99.90;;;;;;5072570;28;20429;-39
2021/09/27 04:18:40;;;;;;;12.20;10.80;;;16.80;99.90;;;;;;5087277;28;20483;-40
2021/09/27 04:21:29;;;;;;;12.73;11.00;;;16.80;99.90;;;;;;5086308;28;20486;-44
2021/09/27 04:24:12;;;;;;;11.67;10.47;;;16.80;99.90;;;;;;5082689;28;20426;-43
2021/09/27 04:27:17;;;;;;;12.17;10.97;;;16.90;99.90;;;;;;5081144;28;20780;-41
2021/09/27 04:30:22;;;;;;;11.97;10.27;;;16.90;99.90;;;;;;5086216;28;20479;-40
2021/09/27 04:33:12;;;;;;;12.90;10.77;;;16.90;99.90;;;;;;5084768;28;20430;-41
2021/09/27 04:36:01;;;;;;;12.90;11.40;;;16.90;99.90;;;;;;5086565;28;20723;-38
2021/09/27 04:38:28;;;;;;;12.03;10.83;;;16.90;99.90;;;;;;5086816;28;20430;-44
2021/09/27 04:40:59;;;;;;;12.27;10.97;;;16.80;99.90;;;;;;5073980;28;20462;-45
2021/09/27 04:43:52;;;;;;;11.87;10.60;;;16.90;99.90;;;;;;5080019;28;20716;-42
2021/09/27 04:46:47;;;;;;;13.20;10.97;;;16.80;99.90;;;;;;5082216;28;20414;-42
2021/09/27 04:49:41;;;;;;;11.30;9.73;;;16.90;99.90;;;;;;5083595;28;20419;-44
2021/09/27 04:52:29;;;;;;;12.50;11.20;;;16.80;99.90;;;;;;5085060;28;20430;-45
2021/09/27 04:54:54;;;;;;;10.70;9.60;;;16.80;99.90;;;;;;5077492;28;21301;-38
2021/09/27 04:57:28;;;;;;;11.10;10.03;;;16.80;99.90;;;;;;5082642;28;20421;-46
2021/09/27 05:00:24;;;;;;;11.60;10.40;;;16.80;99.90;;;;;;5084826;28;20250;-45
2021/09/27 05:03:16;;;;;;;12.47;11.10;;;16.90;99.90;;;;;;5077262;28;21478;-40
2021/09/27 05:06:02;;;;;;;12.40;10.53;;;16.80;99.90;;;;;;5083960;28;20425;-43
2021/09/27 05:09:02;;;;;;;11.97;9.73;;;16.90;99.90;;;;;;5083339;28;20429;-42
2021/09/27 05:11:58;;;;;;;11.30;10.13;;;16.90;99.90;;;;;;5080749;28;20425;-41
2021/09/27 05:14:38;;;;;;;11.70;10.50;;;16.90;99.90;;;;;;5085130;28;20924;-43
2021/09/27 05:17:06;;;;;;;12.23;10.90;;;16.90;99.90;;;;;;5085833;28;20934;-45
2021/09/27 05:19:50;;;;;;;11.57;10.33;;;16.90;99.90;;;;;;5085971;28;20454;-40
2021/09/27 05:22:36;;;;;;;10.73;9.73;;;16.90;99.90;;;;;;5083623;28;20419;-42
2021/09/27 05:25:34;;;;;;;11.97;10.63;;;16.90;99.90;;;;;;5079259;28;20423;-45
2021/09/27 05:28:38;;;;;;;13.40;10.13;;;16.90;99.90;;;;;;5082517;28;20487;-42
2021/09/27 05:31:10;;;;;;;13.17;9.60;;;17.00;99.90;;;;;;5084891;28;21110;-40
2021/09/27 05:33:50;;;;;;;9.97;9.00;;;16.90;99.90;;;;;;5087865;28;20433;-40
2021/09/27 05:36:56;;;;;;;10.87;9.33;;;17.00;99.90;;;;;;5085457;28;20462;-44
2021/09/27 05:39:47;;;;;;;11.40;10.27;;;17.00;99.90;;;;;;5087290;28;20462;-43
2021/09/27 05:42:29;;;;;;;11.37;10.17;;;17.00;99.90;;;;;;5088406;28;20418;-39
2021/09/27 05:45:13;;;;;;;11.53;10.23;;;17.00;99.90;;;;;;5087269;28;20943;-40
2021/09/27 05:47:58;;;;;;;11.90;10.63;;;17.00;99.90;;;;;;5088925;28;20459;-40
2021/09/27 05:50:51;;;;;;;10.97;9.40;;;16.90;99.90;;;;;;5087360;28;20705;-42
2021/09/27 05:53:26;;;;;;;10.63;9.53;;;16.90;99.90;;;;;;5085047;28;20426;-42
2021/09/27 05:56:06;;;;;;;10.73;9.47;;;16.90;99.90;;;;;;5079023;28;20652;-46
2021/09/27 05:58:45;;;;;;;10.33;9.23;;;16.90;99.90;;;;;;5084614;28;20872;-41
2021/09/27 06:01:29;;;;;;;10.20;9.10;;;16.90;99.90;;;;;;5083500;28;20429;-45
2021/09/27 06:04:25;;;;;;;13.60;10.13;;;16.90;99.90;;;;;;5088110;28;20501;-42
2021/09/27 06:07:12;;;;;;;11.80;10.07;;;16.90;99.90;;;;;;5088859;28;20414;-40
2021/09/27 06:09:49;;;;;;;12.27;10.30;;;17.00;99.90;;;;;;5087993;28;20430;-45
2021/09/27 06:12:21;;;;;;;11.00;9.87;;;17.00;99.90;;;;;;5080720;28;20575;-41
2021/09/27 06:14:50;;;;;;;10.70;9.60;;;17.00;99.90;;;;;;5082457;28;21009;-40
2021/09/27 06:17:23;;;;;;;12.63;9.77;;;17.00;99.90;;;;;;5089054;28;20540;-43
2021/09/27 06:20:20;;;;;;;12.83;10.60;;;17.00;99.90;;;;;;5089048;28;20768;-42
2021/09/27 06:22:51;;;;;;;10.90;9.80;;;17.00;99.90;;;;;;5088378;28;20418;-46
2021/09/27 06:25:25;;;;;;;10.00;9.10;;;17.10;99.90;;;;;;5081899;28;20450;-43
2021/09/27 06:28:08;;;;;;;11.67;9.40;;;17.20;99.90;;;;;;5083390;28;20413;-40
2021/09/27 06:30:47;;;;;;;12.20;10.07;;;17.20;99.90;;;;;;5088611;28;20419;-42
2021/09/27 06:33:31;;;;;;;12.00;10.80;;;17.20;99.90;;;;;;5088222;28;20483;-43
2021/09/27 06:35:58;;;;;;;11.43;9.90;;;17.10;99.90;;;;;;5088678;28;20497;-42
2021/09/27 06:38:31;;;;;;;10.53;9.57;;;17.10;99.90;;;;;;5088621;28;20422;-40
2021/09/27 06:40:58;;;;;;;10.10;9.03;;;17.20;99.90;;;;;;5078172;28;20571;-44
2021/09/27 06:43:26;;;;;;;10.97;9.90;;;17.20;99.90;;;;;;5085218;28;20454;-42
2021/09/27 06:45:53;;;;;;;11.80;9.20;;;17.30;99.90;;;;;;5088428;28;20418;-41
2021/09/27 06:48:21;;;;;;;10.27;9.27;;;17.30;99.90;;;;;;5088519;28;20567;-42
2021/09/27 06:50:48;;;;;;;10.70;9.70;;;17.40;99.90;;;;;;5088288;28;20676;-42
2021/09/27 06:53:14;;;;;;;10.97;9.87;;;17.40;99.90;;;;;;5087727;28;20430;-44
2021/09/27 06:55:40;;;;;;;11.00;9.90;;;17.40;99.90;;;;;;5082785;28;20994;-42
2021/09/27 06:58:06;;;;;;;11.30;10.10;;;17.40;99.90;;;;;;5082748;28;20484;-46
2021/09/27 07:00:31;;;;;;;11.70;9.80;;;17.40;99.90;;;;;;5088036;28;20586;-40
2021/09/27 07:02:58;;;;;;;12.40;10.50;;;17.50;99.90;;;;;;5076892;28;20181;-43
2021/09/27 07:05:24;;;;;;;11.03;9.73;;;17.50;99.90;;;;;;5085224;28;20192;-43
2021/09/27 07:07:50;;;;;;;12.50;10.23;;;17.60;99.90;;;;;;5088471;28;20453;-43
2021/09/27 07:10:19;;;;;;;11.00;9.90;;;17.70;99.90;;;;;;5084780;28;20197;-40
2021/09/27 07:12:45;;;;;;;12.90;9.63;;;17.80;99.90;;;;;;5079217;28;20768;-42
2021/09/27 07:15:11;;;;;;;10.50;9.40;;;17.80;99.90;;;;;;5087828;28;21136;-41
2021/09/27 07:17:38;;;;;;;12.77;10.60;;;17.90;99.90;;;;;;5088197;28;20598;-41
2021/09/27 07:20:10;;;;;;;10.60;9.60;;;18.00;99.90;;;;;;5087620;28;20897;-40
2021/09/27 07:22:35;;;;;;;11.17;10.00;;;18.10;99.90;;;;;;5087656;28;20422;-43
2021/09/27 07:25:02;;;;;;;12.63;10.53;;;18.20;99.90;;;;;;5085611;28;20418;-42
2021/09/27 07:27:28;;;;;;;10.23;9.23;;;18.30;99.90;;;;;;5072170;28;20197;-41
2021/09/27 07:29:53;;;;;;;10.63;9.63;;;18.50;99.90;;;;;;5087527;28;20430;-40
2021/09/27 07:32:19;;;;;;;10.57;9.47;;;18.50;99.90;;;;;;5087607;28;20192;-40
2021/09/27 07:34:45;;;;;;;10.27;9.23;;;18.60;99.90;;;;;;5086809;28;20465;-40
2021/09/27 07:37:11;;;;;;;11.43;9.50;;;18.70;99.90;;;;;;5087138;28;20497;-41
2021/09/27 07:39:36;;;;;;;10.10;9.10;;;18.80;99.90;;;;;;5087461;28;20227;-40
2021/09/27 07:42:03;;;;;;;10.70;9.30;;;18.90;99.90;;;;;;5076052;28;20251;-43
2021/09/27 07:44:28;;;;;;;10.87;9.63;;;19.00;99.90;;;;;;5084476;28;20528;-40
2021/09/27 07:46:54;;;;;;;10.13;9.13;;;19.10;99.90;;;;;;5087256;28;20483;-40
2021/09/27 07:49:20;;;;;;;11.10;10.10;;;19.20;99.90;;;;;;5087209;28;20188;-42
2021/09/27 07:51:46;;;;;;;9.50;8.60;;;19.40;99.90;;;;;;5085890;28;20211;-40
2021/09/27 07:54:13;;;;;;;10.47;9.47;;;19.50;99.90;;;;;;5086576;28;20643;-41
2021/09/27 07:56:39;;;;;;;10.27;9.27;;;19.70;99.90;;;;;;5080469;28;20707;-42
2021/09/27 07:59:06;;;;;;;10.17;8.93;;;19.70;99.90;;;;;;5085699;28;20441;-40
2021/09/27 08:01:33;;;;;;;9.73;8.60;;;19.80;99.90;;;;;;5086700;28;20203;-41
2021/09/27 08:04:00;;;;;;;10.13;9.13;;;19.70;99.90;;;;;;5073009;28;20532;-41
2021/09/27 08:06:26;;;;;;;10.80;9.10;;;19.70;99.90;;;;;;5084954;28;20422;-40
2021/09/27 08:08:52;;;;;;;9.30;8.50;;;19.70;99.90;;;;;;5086702;28;20450;-41
2021/09/27 08:11:17;;;;;;;10.63;9.63;;;19.60;99.90;;;;;;5081495;28;20440;-41
2021/09/27 08:13:43;;;;;;;10.10;9.03;;;19.50;99.90;;;;;;5081335;28;20666;-41
2021/09/27 08:16:09;;;;;;;10.63;9.70;;;19.50;99.90;;;;;;5086831;28;20192;-41
2021/09/27 08:18:35;;;;;;;10.17;8.93;;;19.40;99.90;;;;;;5086882;28;20192;-39
2021/09/27 08:21:05;;;;;;;11.80;9.20;;;19.60;99.90;;;;;;5086410;28;20288;-42
2021/09/27 08:23:30;;;;;;;9.90;8.10;;;19.70;99.90;;;;;;5084973;28;20421;-42
2021/09/27 08:25:57;;;;;;;11.33;8.87;;;19.70;99.90;;;;;;5085071;28;20422;-43
2021/09/27 08:28:25;;;;;;;10.93;8.80;;;19.60;99.90;;;;;;5076223;28;20501;-40
2021/09/27 08:31:04;;;;;;;9.33;8.43;;;19.60;99.90;;;;;;5086561;28;20422;-40
2021/09/27 08:33:31;;;;;;;9.70;8.70;;;19.60;99.90;;;;;;5074014;28;20432;-43
2021/09/27 08:35:58;;;;;;;9.00;8.20;;;19.70;99.90;;;;;;5086564;28;20422;-40
2021/09/27 08:38:25;;;;;;;9.33;8.43;;;19.80;99.90;;;;;;5086331;28;20419;-42
2021/09/27 08:41:27;;;;;;;9.53;8.57;;;19.90;99.90;;;;;;5086392;28;20465;-41
2021/09/27 08:43:55;;;;;;;9.30;8.10;;;20.00;99.90;;;;;;5078881;28;20967;-44
2021/09/27 08:46:33;;;;;;;8.87;8.07;;;20.00;99.90;;;;;;5086002;28;20924;-41
2021/09/27 08:49:17;;;;;;;8.57;7.67;;;20.00;99.90;;;;;;5086196;28;20414;-41
2021/09/27 08:51:44;;;;;;;8.30;7.50;;;20.10;99.90;;;;;;5086034;28;20782;-41
2021/09/27 08:54:22;;;;;;;8.90;8.00;;;20.10;99.90;;;;;;5085148;28;21369;-42
2021/09/27 08:57:06;;;;;;;8.20;7.40;;;20.00;99.90;;;;;;5080359;28;20431;-42
2021/09/27 08:59:44;;;;;;;8.73;7.93;;;20.00;99.90;;;;;;5085470;28;20454;-41
2021/09/27 09:02:41;;;;;;;8.13;7.40;;;20.00;99.90;;;;;;5081336;28;20419;-44
2021/09/27 09:05:19;;;;;;;7.93;7.13;;;20.10;99.90;;;;;;5080881;28;20419;-44
2021/09/27 09:08:14;;;;;;;8.30;7.50;;;20.10;99.90;;;;;;5086006;28;20438;-41
2021/09/27 09:11:05;;;;;;;7.07;6.40;;;20.30;99.90;;;;;;5086110;28;20422;-42
2021/09/27 09:14:16;;;;;;;7.63;5.93;;;20.50;99.90;;;;;;5070869;28;20780;-41
2021/09/27 09:16:47;;;;;;;6.70;6.10;;;20.70;99.90;;;;;;5093491;28;20426;-42
2021/09/27 09:19:17;;;;;;;7.43;6.53;;;21.00;99.90;;;;;;5085514;28;21120;-43
2021/09/27 09:21:53;;;;;;;7.10;6.40;;;21.10;99.90;;;;;;5086046;28;20784;-40
2021/09/27 09:24:26;;;;;;;6.67;5.97;;;21.30;99.90;;;;;;5082388;28;20437;-41
2021/09/27 09:26:56;;;;;;;6.30;5.70;;;21.40;99.90;;;;;;5081552;28;20428;-43
2021/09/27 09:29:26;;;;;;;7.50;5.70;;;21.50;99.90;;;;;;5080665;28;20422;-41
2021/09/27 09:31:56;;;;;;;5.83;5.23;;;21.70;99.90;;;;;;5085471;28;20422;-40
2021/09/27 09:34:27;;;;;;;5.80;5.20;;;21.90;99.90;;;;;;5085059;28;20471;-41
2021/09/27 09:36:56;;;;;;;5.53;5.03;;;22.00;99.90;;;;;;5084412;28;20422;-41
2021/09/27 09:39:27;;;;;;;6.70;5.87;;;22.10;99.90;;;;;;5085507;28;20454;-41
2021/09/27 09:42:02;;;;;;;6.23;5.13;;;22.20;99.90;;;;;;5081378;28;20454;-43
2021/09/27 09:44:41;;;;;;;5.23;4.73;;;22.20;99.90;;;;;;5077138;28;20446;-43
2021/09/27 09:47:19;;;;;;;5.20;4.73;;;22.30;99.90;;;;;;5085491;28;20498;-44
2021/09/27 09:49:50;;;;;;;5.33;4.93;;;22.30;99.90;;;;;;5084560;28;20410;-41
2021/09/27 09:52:27;;;;;;;5.63;5.13;;;22.30;99.90;;;;;;5085765;28;20438;-43
2021/09/27 09:54:55;;;;;;;5.83;5.23;;;22.40;99.90;;;;;;5084790;28;20483;-41
2021/09/27 09:57:34;;;;;;;5.70;5.20;;;22.40;99.90;;;;;;5079737;28;20442;-44
2021/09/27 10:00:42;;;;;;;5.50;4.97;;;22.30;99.90;;;;;;5080202;28;20994;-43
2021/09/27 10:03:12;;;;;;;5.30;4.80;;;22.30;99.90;;;;;;5084436;28;20960;-43
2021/09/27 10:05:55;;;;;;;5.07;4.57;;;22.20;99.90;;;;;;5085586;28;20816;-40
2021/09/27 10:08:24;;;;;;;6.00;5.47;;;22.20;99.90;;;;;;5085470;28;20809;-44
2021/09/27 10:11:03;;;;;;;6.80;4.63;;;22.10;99.90;;;;;;5085689;28;20425;-41
2021/09/27 10:13:54;;;;;;;5.20;4.80;;;22.00;99.90;;;;;;5077820;28;20437;-41
2021/09/27 10:16:45;;;;;;;7.27;5.03;;;22.00;99.90;;;;;;5085651;28;20517;-47
2021/09/27 10:19:22;;;;;;;4.73;4.33;;;22.10;99.90;;;;;;5089258;28;20552;-42
2021/09/27 10:21:53;;;;;;;4.47;4.03;;;22.10;99.90;;;;;;5088485;28;20815;-42
2021/09/27 10:24:29;;;;;;;6.10;4.33;;;22.10;99.90;;;;;;5086861;28;20425;-42
2021/09/27 10:26:54;;;;;;;5.80;5.20;;;22.10;99.90;;;;;;5088171;28;20433;-40
2021/09/27 10:29:24;;;;;;;4.73;4.33;;;22.10;99.90;;;;;;5083642;28;20430;-41
2021/09/27 10:32:10;;;;;;;4.73;4.30;;;22.10;99.90;;;;;;5088819;28;20268;-43
2021/09/27 10:34:35;;;;;;;5.37;4.50;;;22.00;99.90;;;;;;5088194;28;20422;-42
2021/09/27 10:37:23;;;;;;;4.43;3.80;;;22.00;99.90;;;;;;5088511;28;20471;-42
2021/09/27 10:39:52;;;;;;;3.87;3.23;;;22.00;99.90;;;;;;5089134;28;20226;-44
2021/09/27 10:42:25;;;;;;;4.60;3.60;;;22.00;99.90;;;;;;5086626;28;20454;-41
2021/09/27 10:44:52;;;;;;;3.47;3.13;;;21.90;99.90;;;;;;5080300;28;20466;-42
2021/09/27 10:47:30;;;;;;;3.87;3.57;;;21.90;99.90;;;;;;5088319;28;20414;-41
2021/09/27 10:50:09;;;;;;;4.30;3.60;;;21.90;99.90;;;;;;5089024;28;20422;-43
2021/09/27 10:52:46;;;;;;;3.73;3.30;;;21.90;99.90;;;;;;5088031;28;20429;-41
2021/09/27 10:55:33;;;;;;;4.40;3.60;;;21.80;99.90;;;;;;5088496;28;20426;-43
2021/09/27 10:58:03;;;;;;;4.53;3.70;;;21.80;99.90;;;;;;5081350;28;20439;-40
2021/09/27 11:00:47;;;;;;;4.63;3.97;;;21.70;99.90;;;;;;5085946;28;20472;-43
2021/09/27 11:03:20;;;;;;;5.77;4.43;;;21.60;99.90;;;;;;5074664;28;20419;-43
2021/09/27 11:06:00;;;;;;;5.23;3.67;;;21.60;99.90;;;;;;5074924;28;20704;-41
2021/09/27 11:08:47;;;;;;;4.00;3.60;;;21.60;99.90;;;;;;5088102;28;20549;-43
2021/09/27 11:11:34;;;;;;;4.40;4.00;;;21.50;99.90;;;;;;5088198;28;20514;-43
2021/09/27 11:14:33;;;;;;;5.10;4.03;;;21.50;99.90;;;;;;5073764;28;20446;-45
2021/09/27 11:17:19;;;;;;;5.67;3.93;;;21.40;99.90;;;;;;5086425;28;20983;-41
2021/09/27 11:20:19;;;;;;;4.27;3.87;;;21.30;99.90;;;;;;5087563;28;20461;-44
2021/09/27 11:22:54;;;;;;;4.70;4.30;;;21.20;99.90;;;;;;5075852;28;20481;-43
2021/09/27 11:25:23;;;;;;;5.43;4.10;;;21.20;99.90;;;;;;5073416;28;20418;-43
2021/09/27 11:28:12;;;;;;;4.73;4.33;;;21.20;99.90;;;;;;5085049;28;20509;-44
2021/09/27 11:31:00;;;;;;;6.77;4.70;;;21.10;99.90;;;;;;5095153;28;20989;-43
2021/09/27 11:33:31;;;;;;;4.40;4.00;;;21.10;99.90;;;;;;5084255;28;20453;-41
2021/09/27 11:36:29;;;;;;;4.87;4.47;;;21.10;99.90;;;;;;5087618;28;20418;-44
2021/09/27 11:39:08;;;;;;;4.20;3.90;;;21.10;99.90;;;;;;5084285;28;20955;-43
2021/09/27 11:42:20;;;;;;;4.60;4.00;;;21.10;99.90;;;;;;5087672;28;20450;-42
2021/09/27 11:44:58;;;;;;;5.03;4.47;;;21.10;99.90;;;;;;5088903;28;20507;-40
2021/09/27 11:48:00;;;;;;;4.67;4.27;;;21.10;99.90;;;;;;5087191;28;20433;-42
2021/09/27 11:50:29;;;;;;;4.73;4.33;;;21.10;99.90;;;;;;5067292;28;20744;-41
2021/09/27 11:53:01;;;;;;;3.97;3.67;;;21.00;99.90;;;;;;5086143;28;20418;-40
2021/09/27 11:55:37;;;;;;;4.37;3.97;;;21.00;99.90;;;;;;5087052;28;20433;-44
2021/09/27 11:58:23;;;;;;;5.23;4.17;;;21.00;99.90;;;;;;5084177;28;20418;-42
2021/09/27 12:01:06;;;;;;;4.83;4.33;;;21.00;99.90;;;;;;5080916;28;20462;-41
2021/09/27 12:03:41;;;;;;;4.03;3.70;;;20.90;99.90;;;;;;5080975;28;20422;-42
2021/09/27 12:06:38;;;;;;;3.90;3.60;;;20.90;99.90;;;;;;5086547;28;20442;-43
2021/09/27 12:09:09;;;;;;;4.63;4.27;;;20.90;99.90;;;;;;5087337;28;21275;-41
2021/09/27 12:11:45;;;;;;;4.90;4.40;;;20.90;99.90;;;;;;5086916;28;20931;-41
2021/09/27 12:14:18;;;;;;;5.03;4.00;;;20.80;99.90;;;;;;5075568;28;20431;-42
2021/09/27 12:16:48;;;;;;;5.83;4.03;;;20.80;99.90;;;;;;5086973;28;20422;-41
2021/09/27 12:19:24;;;;;;;4.30;3.40;;;20.80;99.90;;;;;;5086771;28;20988;-43
2021/09/27 12:21:53;;;;;;;4.60;4.20;;;20.80;99.90;;;;;;5086858;28;20472;-42
2021/09/27 12:24:25;;;;;;;5.77;4.50;;;20.80;99.90;;;;;;5084885;28;20442;-42
2021/09/27 12:27:04;;;;;;;4.40;3.60;;;20.70;99.90;;;;;;5085939;28;20415;-40
2021/09/27 12:29:47;;;;;;;4.80;3.93;;;20.70;99.90;;;;;;5078226;28;20568;-42
2021/09/27 12:32:13;;;;;;;3.43;3.13;;;20.80;99.90;;;;;;5086609;28;20426;-44
2021/09/27 12:34:48;;;;;;;4.53;4.20;;;20.80;99.90;;;;;;5083617;28;20447;-41
2021/09/27 12:37:19;;;;;;;5.00;3.80;;;20.80;99.90;;;;;;5085389;28;20283;-41
2021/09/27 12:39:46;;;;;;;4.20;3.80;;;20.90;99.90;;;;;;5086534;28;20793;-41
2021/09/27 12:42:20;;;;;;;4.80;3.60;;;20.90;99.90;;;;;;5086242;28;20422;-40
2021/09/27 12:45:08;;;;;;;4.23;3.30;;;20.90;99.90;;;;;;5077241;28;20803;-42
2021/09/27 12:47:34;;;;;;;4.00;3.60;;;20.90;99.90;;;;;;5085652;28;20429;-41
2021/09/27 12:50:05;;;;;;;4.00;3.60;;;20.90;99.90;;;;;;5085292;28;20430;-42
2021/09/27 12:52:31;;;;;;;5.43;3.47;;;20.90;99.90;;;;;;5085875;28;20192;-44
2021/09/27 12:54:57;;;;;;;5.80;3.67;;;20.80;99.90;;;;;;5085729;28;20418;-42
2021/09/27 12:57:39;;;;;;;4.00;3.33;;;20.80;99.90;;;;;;5085854;28;20693;-41
2021/09/27 13:00:21;;;;;;;3.90;3.30;;;20.70;99.90;;;;;;5078140;28;20541;-44
2021/09/27 13:02:48;;;;;;;3.10;2.90;;;20.80;99.90;;;;;;5085343;28;20827;-42
2021/09/27 13:05:21;;;;;;;3.17;2.87;;;20.80;99.90;;;;;;5085951;28;20426;-41
2021/09/27 13:07:51;;;;;;;3.17;2.90;;;20.70;99.90;;;;;;5086139;28;20442;-43
2021/09/27 13:10:25;;;;;;;3.10;2.77;;;20.70;99.90;;;;;;5086242;28;20454;-41
2021/09/27 13:13:30;;;;;;;3.37;3.10;;;20.70;99.90;;;;;;5085112;28;20994;-40
2021/09/27 13:16:04;;;;;;;5.93;3.30;;;20.70;99.90;;;;;;5077488;28;20490;-44
2021/09/27 13:18:32;;;;;;;3.93;3.40;;;20.70;99.90;;;;;;5076707;28;20425;-43
2021/09/27 13:21:24;;;;;;;3.37;2.83;;;20.60;99.90;;;;;;5072668;28;20455;-41
2021/09/27 13:24:30;;;;;;;3.40;3.10;;;20.60;99.90;;;;;;5078026;28;20444;-40
2021/09/27 13:27:01;;;;;;;4.00;2.57;;;20.60;99.90;;;;;;5082759;28;20465;-44
2021/09/27 13:29:34;;;;;;;2.80;2.50;;;20.60;99.90;;;;;;5078068;28;20443;-40
2021/09/27 13:32:35;;;;;;;3.07;2.77;;;20.50;99.90;;;;;;5080042;28;20421;-42